Terminal Aerodrome Forecast
Issued by NWS

Current Version | Previous Version | Text Only | Print | Product List | Glossary Off
Versions: 1 2 3 4 5 6 7 8 9 10 11 12 13 14 15 16 17 18 19 20

000
FTUS41 KRLX 271700
TAFCKB
TAF
KCKB 271735Z 2718/2818 30006KT P6SM BKN030
     FM272200 VRB03KT P6SM SCT030
     FM280100 VRB03KT P6SM SKC
     FM281200 VRB03KT P6SM BKN100
     FM281500 06003KT P6SM BKN090=

USA.gov is the U.S. government's official web portal to all federal, state and local government web resources and services.